This is the latest recevied weather packets stored in our database for station/object 9M4GHZ-13. If no packets are shown the sender has not sent any weather packets the latest 1 day(s).
| Time | Temp. | Humidity | Pressure | Rain* | Wind** | Luminosity | Snow |
|---|---|---|---|---|---|---|---|
| 1778110806 | 24.44° C | 98% | 1008 hPa | - | - | - | - |
| 1778104205 | 23.89° C | 97% | 1007.9 hPa | - | - | - | - |
| 1778103606 | 23.89° C | 97% | 1008 hPa | - | - | - | - |
| 1778100605 | 24.44° C | 97% | 1007.6 hPa | - | - | - | - |
| 1778099406 | 23.89° C | 97% | 1007.8 hPa | - | - | - | - |
| 1778095805 | 24.44° C | 96% | 1008.1 hPa | - | - | - | - |
| 1778095205 | 24.44° C | 96% | 1007.9 hPa | - | - | - | - |
| 1778092805 | 24.44° C | 97% | 1008.4 hPa | - | - | - | - |
| 1778091005 | 25° C | 97% | 1008.3 hPa | - | - | - | - |
| 1778089205 | 25° C | 96% | 1008.4 hPa | - | - | - | - |
| 1778088604 | 25° C | 97% | 1008.8 hPa | - | - | - | - |
| 1778087406 | 25° C | 96% | 1009.1 hPa | - | - | - | - |
| 1778085605 | 24.44° C | 96% | 1009.2 hPa | - | - | - | - |
| 1778082605 | 24.44° C | 97% | 1009.5 hPa | - | - | - | - |
| 1778080805 | 25° C | 96% | 1010 hPa | - | - | - | - |
| 1778075406 | 26.67° C | 93% | 1008.5 hPa | - | - | - | - |
| 1778074205 | 27.22° C | 92% | 1008.5 hPa | - | - | - | - |
| 1778071205 | 27.78° C | 88% | 1008.1 hPa | - | - | - | - |
| 1778070005 | 28.33° C | 85% | 1007.7 hPa | - | - | - | - |
| 1778068806 | 28.33° C | 83% | 1007.4 hPa | - | - | - | - |
| 1778068205 | 28.33° C | 83% | 1007.2 hPa | - | - | - | - |
| 1778065805 | 28.33° C | 84% | 1006.3 hPa | - | - | - | - |
| 1778064606 | 28.89° C | 82% | 1006.2 hPa | - | - | - | - |
| 1778063406 | 29.44° C | 81% | 1006 hPa | - | - | - | - |
| 1778062206 | 30° C | 77% | 1005.9 hPa | - | - | - | - |
* Rain since midnight (hover to see other rain measurements)
** Current wind speed in m/s (hover to see current wind gust speed)